sensor_id;sensor_type;location;lat;lon;timestamp;P1;durP1;ratioP1;P2;durP2;ratioP2
10509;SDS011;5303;53.266;10.410;2023-06-22T00:00:49;4.30;;;3.70;;
10509;SDS011;5303;53.266;10.410;2023-06-22T00:03:15;4.73;;;4.20;;
10509;SDS011;5303;53.266;10.410;2023-06-22T00:05:40;5.10;;;4.27;;
10509;SDS011;5303;53.266;10.410;2023-06-22T00:08:05;4.50;;;4.10;;
10509;SDS011;5303;53.266;10.410;2023-06-22T00:10:31;4.40;;;4.00;;
10509;SDS011;5303;53.266;10.410;2023-06-22T00:12:56;5.23;;;4.73;;
10509;SDS011;5303;53.266;10.410;2023-06-22T00:15:21;6.10;;;4.70;;
10509;SDS011;5303;53.266;10.410;2023-06-22T00:17:47;5.10;;;4.67;;
10509;SDS011;5303;53.266;10.410;2023-06-22T00:20:12;5.57;;;4.90;;
10509;SDS011;5303;53.266;10.410;2023-06-22T00:22:39;5.40;;;4.60;;
10509;SDS011;5303;53.266;10.410;2023-06-22T00:25:06;5.47;;;4.60;;
10509;SDS011;5303;53.266;10.410;2023-06-22T00:27:32;5.00;;;4.50;;
10509;SDS011;5303;53.266;10.410;2023-06-22T00:29:57;4.80;;;4.40;;
10509;SDS011;5303;53.266;10.410;2023-06-22T00:32:22;5.30;;;4.80;;
10509;SDS011;5303;53.266;10.410;2023-06-22T00:34:47;5.93;;;5.23;;
10509;SDS011;5303;53.266;10.410;2023-06-22T00:37:13;5.67;;;5.10;;
10509;SDS011;5303;53.266;10.410;2023-06-22T00:39:38;5.40;;;4.90;;
10509;SDS011;5303;53.266;10.410;2023-06-22T00:42:04;6.00;;;5.40;;
10509;SDS011;5303;53.266;10.410;2023-06-22T00:44:29;5.13;;;4.60;;
10509;SDS011;5303;53.266;10.410;2023-06-22T00:46:54;5.40;;;4.90;;
10509;SDS011;5303;53.266;10.410;2023-06-22T00:49:20;4.50;;;4.10;;
10509;SDS011;5303;53.266;10.410;2023-06-22T00:51:46;5.30;;;4.80;;
10509;SDS011;5303;53.266;10.410;2023-06-22T00:54:12;5.70;;;4.50;;
10509;SDS011;5303;53.266;10.410;2023-06-22T00:56:39;4.67;;;4.27;;
10509;SDS011;5303;53.266;10.410;2023-06-22T00:59:06;5.33;;;4.13;;
10509;SDS011;5303;53.266;10.410;2023-06-22T01:01:31;5.10;;;4.60;;
10509;SDS011;5303;53.266;10.410;2023-06-22T01:03:57;4.60;;;4.07;;
10509;SDS011;5303;53.266;10.410;2023-06-22T01:06:26;4.23;;;3.83;;
10509;SDS011;5303;53.266;10.410;2023-06-22T01:09:06;4.80;;;3.97;;
10509;SDS011;5303;53.266;10.410;2023-06-22T01:11:57;4.67;;;4.17;;
10509;SDS011;5303;53.266;10.410;2023-06-22T01:15:28;5.33;;;4.00;;
10509;SDS011;5303;53.266;10.410;2023-06-22T01:17:40;5.10;;;4.60;;
10509;SDS011;5303;53.266;10.410;2023-06-22T01:20:08;5.57;;;3.70;;
10509;SDS011;5303;53.266;10.410;2023-06-22T01:22:44;5.17;;;4.13;;
10509;SDS011;5303;53.266;10.410;2023-06-22T01:25:28;4.53;;;4.13;;
10509;SDS011;5303;53.266;10.410;2023-06-22T01:30:55;6.60;;;4.10;;
10509;SDS011;5303;53.266;10.410;2023-06-22T01:33:31;5.20;;;4.30;;
10509;SDS011;5303;53.266;10.410;2023-06-22T01:35:59;5.57;;;4.43;;
10509;SDS011;5303;53.266;10.410;2023-06-22T01:38:26;4.87;;;4.47;;
10509;SDS011;5303;53.266;10.410;2023-06-22T01:40:53;5.60;;;4.27;;
10509;SDS011;5303;53.266;10.410;2023-06-22T01:43:20;5.60;;;4.87;;
10509;SDS011;5303;53.266;10.410;2023-06-22T01:45:48;5.10;;;4.60;;
10509;SDS011;5303;53.266;10.410;2023-06-22T01:48:14;5.63;;;4.87;;
10509;SDS011;5303;53.266;10.410;2023-06-22T01:50:39;5.37;;;4.33;;
10509;SDS011;5303;53.266;10.410;2023-06-22T01:53:05;5.17;;;4.57;;
10509;SDS011;5303;53.266;10.410;2023-06-22T01:55:31;5.43;;;4.90;;
10509;SDS011;5303;53.266;10.410;2023-06-22T01:57:57;6.17;;;4.80;;
10509;SDS011;5303;53.266;10.410;2023-06-22T02:00:22;5.23;;;4.73;;
10509;SDS011;5303;53.266;10.410;2023-06-22T02:05:51;6.30;;;4.93;;
10509;SDS011;5303;53.266;10.410;2023-06-22T02:08:25;5.67;;;5.07;;
10509;SDS011;5303;53.266;10.410;2023-06-22T02:10:55;5.80;;;4.83;;
10509;SDS011;5303;53.266;10.410;2023-06-22T02:13:23;5.17;;;4.67;;
10509;SDS011;5303;53.266;10.410;2023-06-22T02:15:49;6.20;;;4.80;;
10509;SDS011;5303;53.266;10.410;2023-06-22T02:18:16;5.77;;;4.97;;
10509;SDS011;5303;53.266;10.410;2023-06-22T02:20:41;6.30;;;5.57;;
10509;SDS011;5303;53.266;10.410;2023-06-22T02:23:06;5.07;;;4.57;;
10509;SDS011;5303;53.266;10.410;2023-06-22T02:25:33;5.40;;;4.73;;
10509;SDS011;5303;53.266;10.410;2023-06-22T02:27:58;4.83;;;4.30;;
10509;SDS011;5303;53.266;10.410;2023-06-22T02:30:24;5.70;;;5.07;;
10509;SDS011;5303;53.266;10.410;2023-06-22T02:32:49;6.40;;;5.30;;
10509;SDS011;5303;53.266;10.410;2023-06-22T02:35:23;5.57;;;4.87;;
10509;SDS011;5303;53.266;10.410;2023-06-22T02:37:48;4.80;;;4.40;;
10509;SDS011;5303;53.266;10.410;2023-06-22T02:40:16;7.33;;;5.00;;
10509;SDS011;5303;53.266;10.410;2023-06-22T02:42:42;5.10;;;4.10;;
10509;SDS011;5303;53.266;10.410;2023-06-22T02:45:07;5.77;;;5.17;;
10509;SDS011;5303;53.266;10.410;2023-06-22T02:47:33;6.60;;;5.30;;
10509;SDS011;5303;53.266;10.410;2023-06-22T02:49:58;6.60;;;4.87;;
10509;SDS011;5303;53.266;10.410;2023-06-22T02:52:23;6.13;;;4.57;;
10509;SDS011;5303;53.266;10.410;2023-06-22T02:54:48;5.83;;;5.30;;
10509;SDS011;5303;53.266;10.410;2023-06-22T02:57:14;5.93;;;4.73;;
10509;SDS011;5303;53.266;10.410;2023-06-22T02:59:40;8.03;;;5.30;;
10509;SDS011;5303;53.266;10.410;2023-06-22T03:02:06;5.37;;;4.83;;
10509;SDS011;5303;53.266;10.410;2023-06-22T03:04:33;5.43;;;4.93;;
10509;SDS011;5303;53.266;10.410;2023-06-22T03:06:58;5.60;;;5.10;;
10509;SDS011;5303;53.266;10.410;2023-06-22T03:09:26;5.10;;;4.60;;
10509;SDS011;5303;53.266;10.410;2023-06-22T03:11:54;6.93;;;5.10;;
10509;SDS011;5303;53.266;10.410;2023-06-22T03:14:20;7.33;;;5.13;;
10509;SDS011;5303;53.266;10.410;2023-06-22T03:16:45;5.73;;;5.13;;
10509;SDS011;5303;53.266;10.410;2023-06-22T03:19:11;5.57;;;5.07;;
10509;SDS011;5303;53.266;10.410;2023-06-22T03:21:36;5.93;;;5.33;;
10509;SDS011;5303;53.266;10.410;2023-06-22T03:24:03;8.03;;;5.50;;
10509;SDS011;5303;53.266;10.410;2023-06-22T03:26:30;5.67;;;5.13;;
10509;SDS011;5303;53.266;10.410;2023-06-22T03:28:55;6.27;;;5.17;;
10509;SDS011;5303;53.266;10.410;2023-06-22T03:31:20;6.03;;;5.43;;
10509;SDS011;5303;53.266;10.410;2023-06-22T03:33:46;6.57;;;5.27;;
10509;SDS011;5303;53.266;10.410;2023-06-22T03:36:13;6.80;;;5.40;;
10509;SDS011;5303;53.266;10.410;2023-06-22T03:38:38;6.20;;;5.60;;
10509;SDS011;5303;53.266;10.410;2023-06-22T03:41:04;6.07;;;5.47;;
10509;SDS011;5303;53.266;10.410;2023-06-22T03:43:29;6.20;;;5.60;;
10509;SDS011;5303;53.266;10.410;2023-06-22T03:45:54;7.37;;;5.77;;
10509;SDS011;5303;53.266;10.410;2023-06-22T03:48:19;7.97;;;6.30;;
10509;SDS011;5303;53.266;10.410;2023-06-22T03:50:45;6.23;;;5.63;;
10509;SDS011;5303;53.266;10.410;2023-06-22T03:53:10;7.43;;;6.03;;
10509;SDS011;5303;53.266;10.410;2023-06-22T03:55:35;6.57;;;5.87;;
10509;SDS011;5303;53.266;10.410;2023-06-22T03:58:01;6.27;;;5.63;;
10509;SDS011;5303;53.266;10.410;2023-06-22T04:00:30;7.03;;;6.33;;
10509;SDS011;5303;53.266;10.410;2023-06-22T04:02:55;6.03;;;5.43;;
10509;SDS011;5303;53.266;10.410;2023-06-22T04:05:21;8.43;;;6.53;;
10509;SDS011;5303;53.266;10.410;2023-06-22T04:07:46;8.53;;;6.10;;
10509;SDS011;5303;53.266;10.410;2023-06-22T04:10:11;7.00;;;6.17;;
10509;SDS011;5303;53.266;10.410;2023-06-22T04:12:36;6.60;;;5.77;;
10509;SDS011;5303;53.266;10.410;2023-06-22T04:15:02;6.43;;;5.83;;
10509;SDS011;5303;53.266;10.410;2023-06-22T04:17:27;6.80;;;6.03;;
10509;SDS011;5303;53.266;10.410;2023-06-22T04:19:52;7.43;;;6.00;;
10509;SDS011;5303;53.266;10.410;2023-06-22T04:22:18;6.63;;;6.03;;
10509;SDS011;5303;53.266;10.410;2023-06-22T04:24:43;7.50;;;6.10;;
10509;SDS011;5303;53.266;10.410;2023-06-22T04:27:09;5.90;;;5.40;;
10509;SDS011;5303;53.266;10.410;2023-06-22T04:29:34;7.73;;;6.93;;
10509;SDS011;5303;53.266;10.410;2023-06-22T04:31:59;8.63;;;6.80;;
10509;SDS011;5303;53.266;10.410;2023-06-22T04:34:28;6.40;;;5.80;;
10509;SDS011;5303;53.266;10.410;2023-06-22T04:36:53;7.30;;;6.60;;
10509;SDS011;5303;53.266;10.410;2023-06-22T04:39:19;6.90;;;6.30;;
10509;SDS011;5303;53.266;10.410;2023-06-22T04:41:45;7.03;;;6.33;;
10509;SDS011;5303;53.266;10.410;2023-06-22T04:44:14;9.07;;;6.70;;
10509;SDS011;5303;53.266;10.410;2023-06-22T04:46:48;7.70;;;6.90;;
10509;SDS011;5303;53.266;10.410;2023-06-22T04:49:18;6.63;;;6.03;;
10509;SDS011;5303;53.266;10.410;2023-06-22T04:51:45;7.07;;;6.17;;
10509;SDS011;5303;53.266;10.410;2023-06-22T04:54:10;7.10;;;5.83;;
10509;SDS011;5303;53.266;10.410;2023-06-22T04:56:35;6.63;;;5.90;;
10509;SDS011;5303;53.266;10.410;2023-06-22T04:59:01;7.80;;;6.17;;
10509;SDS011;5303;53.266;10.410;2023-06-22T05:01:28;6.03;;;5.43;;
10509;SDS011;5303;53.266;10.410;2023-06-22T05:03:53;6.67;;;5.63;;
10509;SDS011;5303;53.266;10.410;2023-06-22T05:06:20;6.50;;;5.57;;
10509;SDS011;5303;53.266;10.410;2023-06-22T05:08:46;10.60;;;6.10;;
10509;SDS011;5303;53.266;10.410;2023-06-22T05:11:12;9.60;;;6.43;;
10509;SDS011;5303;53.266;10.410;2023-06-22T05:13:37;11.03;;;6.77;;
10509;SDS011;5303;53.266;10.410;2023-06-22T05:16:02;6.95;;;6.05;;
10509;SDS011;5303;53.266;10.410;2023-06-22T05:18:28;9.65;;;5.32;;
10509;SDS011;5303;53.266;10.410;2023-06-22T05:20:54;6.50;;;5.35;;
10509;SDS011;5303;53.266;10.410;2023-06-22T05:23:20;9.65;;;5.97;;
10509;SDS011;5303;53.266;10.410;2023-06-22T05:25:45;5.85;;;5.32;;
10509;SDS011;5303;53.266;10.410;2023-06-22T05:28:10;8.52;;;5.60;;
10509;SDS011;5303;53.266;10.410;2023-06-22T05:30:36;6.75;;;5.78;;
10509;SDS011;5303;53.266;10.410;2023-06-22T05:33:02;6.70;;;5.80;;
10509;SDS011;5303;53.266;10.410;2023-06-22T05:35:27;7.47;;;6.68;;
10509;SDS011;5303;53.266;10.410;2023-06-22T05:37:52;6.03;;;5.43;;
10509;SDS011;5303;53.266;10.410;2023-06-22T05:40:18;6.75;;;5.60;;
10509;SDS011;5303;53.266;10.410;2023-06-22T05:42:43;5.68;;;5.15;;
10509;SDS011;5303;53.266;10.410;2023-06-22T05:45:08;5.97;;;5.13;;
10509;SDS011;5303;53.266;10.410;2023-06-22T05:47:34;6.32;;;5.70;;
10509;SDS011;5303;53.266;10.410;2023-06-22T05:49:59;6.38;;;5.63;;
10509;SDS011;5303;53.266;10.410;2023-06-22T05:52:25;6.05;;;5.20;;
10509;SDS011;5303;53.266;10.410;2023-06-22T05:54:50;6.63;;;5.95;;
10509;SDS011;5303;53.266;10.410;2023-06-22T05:57:15;5.43;;;4.70;;
10509;SDS011;5303;53.266;10.410;2023-06-22T05:59:40;5.35;;;4.72;;
10509;SDS011;5303;53.266;10.410;2023-06-22T06:02:06;8.23;;;6.25;;
10509;SDS011;5303;53.266;10.410;2023-06-22T06:04:31;5.50;;;4.82;;
10509;SDS011;5303;53.266;10.410;2023-06-22T06:06:56;6.85;;;5.70;;
10509;SDS011;5303;53.266;10.410;2023-06-22T06:09:22;7.30;;;5.80;;
10509;SDS011;5303;53.266;10.410;2023-06-22T06:11:47;6.22;;;5.07;;
10509;SDS011;5303;53.266;10.410;2023-06-22T06:14:12;6.43;;;5.15;;
10509;SDS011;5303;53.266;10.410;2023-06-22T06:16:38;7.53;;;6.20;;
10509;SDS011;5303;53.266;10.410;2023-06-22T06:19:03;6.30;;;5.10;;
10509;SDS011;5303;53.266;10.410;2023-06-22T06:21:28;7.80;;;5.70;;
10509;SDS011;5303;53.266;10.410;2023-06-22T06:23:54;5.63;;;5.13;;
10509;SDS011;5303;53.266;10.410;2023-06-22T06:26:19;6.47;;;4.90;;
10509;SDS011;5303;53.266;10.410;2023-06-22T06:28:52;5.53;;;5.03;;
10509;SDS011;5303;53.266;10.410;2023-06-22T06:31:17;8.13;;;5.70;;
10509;SDS011;5303;53.266;10.410;2023-06-22T06:33:43;9.13;;;6.63;;
10509;SDS011;5303;53.266;10.410;2023-06-22T06:36:08;6.63;;;4.68;;
10509;SDS011;5303;53.266;10.410;2023-06-22T06:38:33;7.83;;;5.07;;
10509;SDS011;5303;53.266;10.410;2023-06-22T06:40:58;7.47;;;5.40;;
10509;SDS011;5303;53.266;10.410;2023-06-22T06:43:24;5.63;;;5.07;;
10509;SDS011;5303;53.266;10.410;2023-06-22T06:45:50;10.03;;;7.60;;
10509;SDS011;5303;53.266;10.410;2023-06-22T06:48:15;5.27;;;4.60;;
10509;SDS011;5303;53.266;10.410;2023-06-22T06:50:40;4.82;;;4.43;;
10509;SDS011;5303;53.266;10.410;2023-06-22T06:53:06;5.35;;;4.60;;
10509;SDS011;5303;53.266;10.410;2023-06-22T06:55:31;5.03;;;4.53;;
10509;SDS011;5303;53.266;10.410;2023-06-22T06:57:57;5.33;;;4.83;;
10509;SDS011;5303;53.266;10.410;2023-06-22T07:00:23;5.05;;;4.30;;
10509;SDS011;5303;53.266;10.410;2023-06-22T07:02:50;6.27;;;4.60;;
10509;SDS011;5303;53.266;10.410;2023-06-22T07:05:15;5.60;;;4.57;;
10509;SDS011;5303;53.266;10.410;2023-06-22T07:07:40;4.72;;;4.32;;
10509;SDS011;5303;53.266;10.410;2023-06-22T07:10:09;5.10;;;4.40;;
10509;SDS011;5303;53.266;10.410;2023-06-22T07:12:34;4.65;;;4.25;;
10509;SDS011;5303;53.266;10.410;2023-06-22T07:15:06;5.88;;;5.05;;
10509;SDS011;5303;53.266;10.410;2023-06-22T07:17:33;4.75;;;4.10;;
10509;SDS011;5303;53.266;10.410;2023-06-22T07:19:59;4.93;;;4.40;;
10509;SDS011;5303;53.266;10.410;2023-06-22T07:22:25;4.93;;;4.30;;
10509;SDS011;5303;53.266;10.410;2023-06-22T07:24:50;6.10;;;4.38;;
10509;SDS011;5303;53.266;10.410;2023-06-22T07:27:16;5.28;;;4.40;;
10509;SDS011;5303;53.266;10.410;2023-06-22T07:29:44;5.30;;;4.32;;
10509;SDS011;5303;53.266;10.410;2023-06-22T07:32:09;6.32;;;4.13;;
10509;SDS011;5303;53.266;10.410;2023-06-22T07:34:35;6.10;;;5.47;;
10509;SDS011;5303;53.266;10.410;2023-06-22T07:37:00;4.35;;;3.95;;
10509;SDS011;5303;53.266;10.410;2023-06-22T07:39:26;4.68;;;4.28;;
10509;SDS011;5303;53.266;10.410;2023-06-22T07:41:51;5.68;;;4.05;;
10509;SDS011;5303;53.266;10.410;2023-06-22T07:44:17;5.47;;;4.18;;
10509;SDS011;5303;53.266;10.410;2023-06-22T07:46:42;6.35;;;4.68;;
10509;SDS011;5303;53.266;10.410;2023-06-22T07:49:07;4.97;;;3.65;;
10509;SDS011;5303;53.266;10.410;2023-06-22T07:51:33;5.57;;;4.25;;
10509;SDS011;5303;53.266;10.410;2023-06-22T07:53:59;4.97;;;4.22;;
10509;SDS011;5303;53.266;10.410;2023-06-22T07:56:25;10.13;;;4.90;;
10509;SDS011;5303;53.266;10.410;2023-06-22T07:58:50;4.60;;;4.05;;
10509;SDS011;5303;53.266;10.410;2023-06-22T08:01:15;4.35;;;3.90;;
10509;SDS011;5303;53.266;10.410;2023-06-22T08:03:41;6.95;;;3.92;;
10509;SDS011;5303;53.266;10.410;2023-06-22T08:06:07;6.18;;;4.57;;
10509;SDS011;5303;53.266;10.410;2023-06-22T08:08:35;5.68;;;4.60;;
10509;SDS011;5303;53.266;10.410;2023-06-22T08:11:01;6.10;;;4.22;;
10509;SDS011;5303;53.266;10.410;2023-06-22T08:13:26;4.85;;;4.35;;
10509;SDS011;5303;53.266;10.410;2023-06-22T08:15:52;4.60;;;4.10;;
10509;SDS011;5303;53.266;10.410;2023-06-22T08:18:17;4.97;;;4.00;;
10509;SDS011;5303;53.266;10.410;2023-06-22T08:20:42;5.22;;;4.00;;
10509;SDS011;5303;53.266;10.410;2023-06-22T08:23:07;4.60;;;4.15;;
10509;SDS011;5303;53.266;10.410;2023-06-22T08:25:33;6.53;;;4.47;;
10509;SDS011;5303;53.266;10.410;2023-06-22T08:27:59;4.90;;;4.28;;
10509;SDS011;5303;53.266;10.410;2023-06-22T08:30:25;5.60;;;4.32;;
10509;SDS011;5303;53.266;10.410;2023-06-22T08:32:50;4.40;;;4.00;;
10509;SDS011;5303;53.266;10.410;2023-06-22T08:35:15;5.40;;;4.47;;
10509;SDS011;5303;53.266;10.410;2023-06-22T08:37:41;5.22;;;4.72;;
10509;SDS011;5303;53.266;10.410;2023-06-22T08:40:07;5.43;;;4.25;;
10509;SDS011;5303;53.266;10.410;2023-06-22T08:42:34;5.35;;;4.05;;
10509;SDS011;5303;53.266;10.410;2023-06-22T08:45:00;5.00;;;4.50;;
10509;SDS011;5303;53.266;10.410;2023-06-22T08:47:27;6.85;;;4.55;;
10509;SDS011;5303;53.266;10.410;2023-06-22T08:49:53;4.35;;;3.95;;
10509;SDS011;5303;53.266;10.410;2023-06-22T08:52:19;4.80;;;3.97;;
10509;SDS011;5303;53.266;10.410;2023-06-22T08:54:45;4.65;;;4.13;;
10509;SDS011;5303;53.266;10.410;2023-06-22T08:57:11;4.68;;;4.18;;
10509;SDS011;5303;53.266;10.410;2023-06-22T08:59:36;4.90;;;4.50;;
10509;SDS011;5303;53.266;10.410;2023-06-22T09:02:01;4.82;;;4.20;;
10509;SDS011;5303;53.266;10.410;2023-06-22T09:04:27;5.03;;;4.20;;
10509;SDS011;5303;53.266;10.410;2023-06-22T09:06:52;5.00;;;4.05;;
10509;SDS011;5303;53.266;10.410;2023-06-22T09:09:18;6.65;;;4.25;;
10509;SDS011;5303;53.266;10.410;2023-06-22T09:11:43;6.15;;;4.97;;
10509;SDS011;5303;53.266;10.410;2023-06-22T09:14:10;4.90;;;4.38;;
10509;SDS011;5303;53.266;10.410;2023-06-22T09:16:36;6.03;;;4.28;;
10509;SDS011;5303;53.266;10.410;2023-06-22T09:19:01;7.28;;;3.85;;
10509;SDS011;5303;53.266;10.410;2023-06-22T09:21:26;4.60;;;4.05;;
10509;SDS011;5303;53.266;10.410;2023-06-22T09:23:51;4.55;;;3.83;;
10509;SDS011;5303;53.266;10.410;2023-06-22T09:26:17;4.78;;;4.05;;
10509;SDS011;5303;53.266;10.410;2023-06-22T09:28:43;5.60;;;3.65;;
10509;SDS011;5303;53.266;10.410;2023-06-22T09:31:08;4.25;;;3.70;;
10509;SDS011;5303;53.266;10.410;2023-06-22T09:33:35;4.50;;;4.10;;
10509;SDS011;5303;53.266;10.410;2023-06-22T09:36:01;6.25;;;4.55;;
10509;SDS011;5303;53.266;10.410;2023-06-22T09:38:26;4.53;;;3.78;;
10509;SDS011;5303;53.266;10.410;2023-06-22T09:40:51;5.15;;;3.78;;
10509;SDS011;5303;53.266;10.410;2023-06-22T09:43:16;3.78;;;3.42;;
10509;SDS011;5303;53.266;10.410;2023-06-22T09:45:42;5.18;;;4.10;;
10509;SDS011;5303;53.266;10.410;2023-06-22T09:48:07;4.20;;;3.60;;
10509;SDS011;5303;53.266;10.410;2023-06-22T09:50:34;4.68;;;3.97;;
10509;SDS011;5303;53.266;10.410;2023-06-22T09:53:00;5.32;;;4.03;;
10509;SDS011;5303;53.266;10.410;2023-06-22T09:55:25;5.65;;;3.85;;
10509;SDS011;5303;53.266;10.410;2023-06-22T09:57:50;4.13;;;3.72;;
10509;SDS011;5303;53.266;10.410;2023-06-22T10:00:16;4.32;;;3.92;;
10509;SDS011;5303;53.266;10.410;2023-06-22T10:02:42;5.60;;;4.10;;
10509;SDS011;5303;53.266;10.410;2023-06-22T10:05:10;5.25;;;4.28;;
10509;SDS011;5303;53.266;10.410;2023-06-22T10:07:36;5.53;;;4.20;;
10509;SDS011;5303;53.266;10.410;2023-06-22T10:10:07;4.50;;;3.90;;
10509;SDS011;5303;53.266;10.410;2023-06-22T10:12:33;4.28;;;3.88;;
10509;SDS011;5303;53.266;10.410;2023-06-22T10:14:58;5.38;;;4.30;;
10509;SDS011;5303;53.266;10.410;2023-06-22T10:17:24;5.53;;;4.20;;
10509;SDS011;5303;53.266;10.410;2023-06-22T10:19:49;4.65;;;3.95;;
10509;SDS011;5303;53.266;10.410;2023-06-22T10:22:14;6.50;;;4.65;;
10509;SDS011;5303;53.266;10.410;2023-06-22T10:24:40;4.20;;;3.80;;
10509;SDS011;5303;53.266;10.410;2023-06-22T10:27:09;4.78;;;4.07;;
10509;SDS011;5303;53.266;10.410;2023-06-22T10:29:35;5.10;;;4.40;;
10509;SDS011;5303;53.266;10.410;2023-06-22T10:32:01;4.85;;;4.45;;
10509;SDS011;5303;53.266;10.410;2023-06-22T10:34:26;5.70;;;4.18;;
10509;SDS011;5303;53.266;10.410;2023-06-22T10:36:51;6.15;;;3.90;;
10509;SDS011;5303;53.266;10.410;2023-06-22T10:39:16;4.38;;;3.92;;
10509;SDS011;5303;53.266;10.410;2023-06-22T10:41:42;5.68;;;4.05;;
10509;SDS011;5303;53.266;10.410;2023-06-22T10:44:07;4.75;;;4.07;;
10509;SDS011;5303;53.266;10.410;2023-06-22T10:46:33;4.53;;;4.13;;
10509;SDS011;5303;53.266;10.410;2023-06-22T10:48:58;4.88;;;4.38;;
10509;SDS011;5303;53.266;10.410;2023-06-22T10:51:24;5.80;;;4.85;;
10509;SDS011;5303;53.266;10.410;2023-06-22T10:53:50;4.97;;;4.40;;
10509;SDS011;5303;53.266;10.410;2023-06-22T10:56:16;5.38;;;4.40;;
10509;SDS011;5303;53.266;10.410;2023-06-22T10:58:41;6.45;;;4.72;;
10509;SDS011;5303;53.266;10.410;2023-06-22T11:01:06;6.15;;;4.50;;
10509;SDS011;5303;53.266;10.410;2023-06-22T11:03:31;5.65;;;4.82;;
10509;SDS011;5303;53.266;10.410;2023-06-22T11:05:57;4.97;;;4.30;;
10509;SDS011;5303;53.266;10.410;2023-06-22T11:08:22;6.07;;;5.00;;
10509;SDS011;5303;53.266;10.410;2023-06-22T11:10:47;5.28;;;4.72;;
10509;SDS011;5303;53.266;10.410;2023-06-22T11:13:13;6.50;;;4.65;;
10509;SDS011;5303;53.266;10.410;2023-06-22T11:15:38;7.20;;;6.60;;
10509;SDS011;5303;53.266;10.410;2023-06-22T11:18:04;5.50;;;5.00;;
10509;SDS011;5303;53.266;10.410;2023-06-22T11:20:30;5.72;;;5.10;;
10509;SDS011;5303;53.266;10.410;2023-06-22T11:22:55;5.15;;;4.60;;
10509;SDS011;5303;53.266;10.410;2023-06-22T11:25:21;5.63;;;4.75;;
10509;SDS011;5303;53.266;10.410;2023-06-22T11:27:46;5.20;;;4.60;;
10509;SDS011;5303;53.266;10.410;2023-06-22T11:30:11;5.15;;;4.65;;
10509;SDS011;5303;53.266;10.410;2023-06-22T11:32:37;5.10;;;4.38;;
10509;SDS011;5303;53.266;10.410;2023-06-22T11:35:02;6.55;;;5.05;;
10509;SDS011;5303;53.266;10.410;2023-06-22T11:37:27;5.28;;;4.65;;
10509;SDS011;5303;53.266;10.410;2023-06-22T11:39:53;6.45;;;4.95;;
10509;SDS011;5303;53.266;10.410;2023-06-22T11:42:19;5.03;;;4.53;;
10509;SDS011;5303;53.266;10.410;2023-06-22T11:44:45;5.78;;;5.18;;
10509;SDS011;5303;53.266;10.410;2023-06-22T11:47:10;4.65;;;4.25;;
10509;SDS011;5303;53.266;10.410;2023-06-22T11:49:35;5.18;;;4.68;;
10509;SDS011;5303;53.266;10.410;2023-06-22T11:52:01;7.32;;;5.20;;
10509;SDS011;5303;53.266;10.410;2023-06-22T11:54:26;7.15;;;4.93;;
10509;SDS011;5303;53.266;10.410;2023-06-22T11:56:51;5.43;;;4.57;;
10509;SDS011;5303;53.266;10.410;2023-06-22T11:59:16;5.60;;;5.10;;
10509;SDS011;5303;53.266;10.410;2023-06-22T12:01:42;8.95;;;5.07;;
10509;SDS011;5303;53.266;10.410;2023-06-22T12:04:07;6.35;;;5.10;;
10509;SDS011;5303;53.266;10.410;2023-06-22T12:06:37;5.60;;;5.10;;
10509;SDS011;5303;53.266;10.410;2023-06-22T12:09:03;5.65;;;5.10;;
10509;SDS011;5303;53.266;10.410;2023-06-22T12:11:30;5.88;;;5.35;;
10509;SDS011;5303;53.266;10.410;2023-06-22T12:13:55;5.70;;;5.03;;
10509;SDS011;5303;53.266;10.410;2023-06-22T12:16:20;5.47;;;5.00;;
10509;SDS011;5303;53.266;10.410;2023-06-22T12:18:46;5.90;;;5.00;;
10509;SDS011;5303;53.266;10.410;2023-06-22T12:21:12;6.10;;;5.50;;
10509;SDS011;5303;53.266;10.410;2023-06-22T12:23:37;5.50;;;5.00;;
10509;SDS011;5303;53.266;10.410;2023-06-22T12:26:02;5.90;;;5.25;;
10509;SDS011;5303;53.266;10.410;2023-06-22T12:28:28;6.38;;;5.47;;
10509;SDS011;5303;53.266;10.410;2023-06-22T12:30:53;6.15;;;5.55;;
10509;SDS011;5303;53.266;10.410;2023-06-22T12:33:18;6.05;;;5.45;;
10509;SDS011;5303;53.266;10.410;2023-06-22T12:35:44;5.85;;;5.25;;
10509;SDS011;5303;53.266;10.410;2023-06-22T12:38:10;5.93;;;5.32;;
10509;SDS011;5303;53.266;10.410;2023-06-22T12:40:35;6.10;;;5.50;;
10509;SDS011;5303;53.266;10.410;2023-06-22T12:43:01;5.95;;;5.35;;
10509;SDS011;5303;53.266;10.410;2023-06-22T12:45:27;6.65;;;4.93;;
10509;SDS011;5303;53.266;10.410;2023-06-22T12:47:54;5.97;;;5.38;;
10509;SDS011;5303;53.266;10.410;2023-06-22T12:50:19;5.40;;;4.90;;
10509;SDS011;5303;53.266;10.410;2023-06-22T12:52:44;6.28;;;4.78;;
10509;SDS011;5303;53.266;10.410;2023-06-22T12:55:09;5.68;;;5.18;;
10509;SDS011;5303;53.266;10.410;2023-06-22T12:57:35;5.35;;;4.85;;
10509;SDS011;5303;53.266;10.410;2023-06-22T13:00:00;5.18;;;4.55;;
10509;SDS011;5303;53.266;10.410;2023-06-22T13:02:25;7.07;;;4.82;;
10509;SDS011;5303;53.266;10.410;2023-06-22T13:04:51;6.65;;;5.10;;
10509;SDS011;5303;53.266;10.410;2023-06-22T13:07:16;5.65;;;5.20;;
10509;SDS011;5303;53.266;10.410;2023-06-22T13:09:41;5.57;;;5.07;;
10509;SDS011;5303;53.266;10.410;2023-06-22T13:12:07;5.88;;;5.35;;
10509;SDS011;5303;53.266;10.410;2023-06-22T13:14:32;6.10;;;5.50;;
10509;SDS011;5303;53.266;10.410;2023-06-22T13:16:58;6.38;;;5.75;;
10509;SDS011;5303;53.266;10.410;2023-06-22T13:19:23;6.10;;;5.50;;
10509;SDS011;5303;53.266;10.410;2023-06-22T13:21:48;7.18;;;5.18;;
10509;SDS011;5303;53.266;10.410;2023-06-22T13:24:14;6.03;;;5.43;;
10509;SDS011;5303;53.266;10.410;2023-06-22T13:26:39;6.00;;;5.40;;
10509;SDS011;5303;53.266;10.410;2023-06-22T13:29:04;6.25;;;5.45;;
10509;SDS011;5303;53.266;10.410;2023-06-22T13:31:29;8.15;;;5.78;;
10509;SDS011;5303;53.266;10.410;2023-06-22T13:33:55;5.88;;;5.03;;
10509;SDS011;5303;53.266;10.410;2023-06-22T13:36:20;6.28;;;5.43;;
10509;SDS011;5303;53.266;10.410;2023-06-22T13:38:46;9.43;;;5.63;;
10509;SDS011;5303;53.266;10.410;2023-06-22T13:41:12;6.30;;;5.65;;
10509;SDS011;5303;53.266;10.410;2023-06-22T13:43:37;5.88;;;5.30;;
10509;SDS011;5303;53.266;10.410;2023-06-22T13:46:02;6.10;;;5.55;;
10509;SDS011;5303;53.266;10.410;2023-06-22T13:48:28;6.35;;;5.55;;
10509;SDS011;5303;53.266;10.410;2023-06-22T13:50:53;6.30;;;5.70;;
10509;SDS011;5303;53.266;10.410;2023-06-22T13:53:19;7.10;;;6.40;;
10509;SDS011;5303;53.266;10.410;2023-06-22T13:55:44;6.47;;;5.90;;
10509;SDS011;5303;53.266;10.410;2023-06-22T13:58:09;6.55;;;5.72;;
10509;SDS011;5303;53.266;10.410;2023-06-22T14:00:35;6.93;;;6.00;;
10509;SDS011;5303;53.266;10.410;2023-06-22T14:03:00;8.15;;;5.22;;
10509;SDS011;5303;53.266;10.410;2023-06-22T14:05:25;6.22;;;5.65;;
10509;SDS011;5303;53.266;10.410;2023-06-22T14:07:50;5.95;;;5.35;;
10509;SDS011;5303;53.266;10.410;2023-06-22T14:10:17;7.15;;;6.20;;
10509;SDS011;5303;53.266;10.410;2023-06-22T14:12:42;7.13;;;5.55;;
10509;SDS011;5303;53.266;10.410;2023-06-22T14:15:07;6.85;;;6.15;;
10509;SDS011;5303;53.266;10.410;2023-06-22T14:17:33;9.10;;;5.70;;
10509;SDS011;5303;53.266;10.410;2023-06-22T14:19:58;6.40;;;5.80;;
10509;SDS011;5303;53.266;10.410;2023-06-22T14:22:23;6.57;;;6.00;;
10509;SDS011;5303;53.266;10.410;2023-06-22T14:24:49;7.35;;;6.65;;
10509;SDS011;5303;53.266;10.410;2023-06-22T14:27:14;6.75;;;6.15;;
10509;SDS011;5303;53.266;10.410;2023-06-22T14:29:40;6.25;;;5.75;;
10509;SDS011;5303;53.266;10.410;2023-06-22T14:32:05;6.50;;;5.80;;
10509;SDS011;5303;53.266;10.410;2023-06-22T14:34:32;7.43;;;6.40;;
10509;SDS011;5303;53.266;10.410;2023-06-22T14:36:58;7.63;;;6.03;;
10509;SDS011;5303;53.266;10.410;2023-06-22T14:39:23;5.93;;;5.35;;
10509;SDS011;5303;53.266;10.410;2023-06-22T14:41:48;7.05;;;6.45;;
10509;SDS011;5303;53.266;10.410;2023-06-22T14:44:14;9.18;;;6.40;;
10509;SDS011;5303;53.266;10.410;2023-06-22T14:46:40;6.78;;;6.10;;